createdAt,value
2018-09-25T00:00:14.800Z,80.82
2018-09-25T00:02:49.579Z,81.58
2018-09-25T00:05:24.344Z,80.63
2018-09-25T00:07:59.091Z,80.42
2018-09-25T00:10:33.960Z,80.67
2018-09-25T00:13:08.690Z,80.69
2018-09-25T00:15:43.507Z,80.63
2018-09-25T00:18:18.327Z,81.26
2018-09-25T00:20:53.160Z,81.37
2018-09-25T00:23:27.881Z,80.92
2018-09-25T00:26:02.691Z,80.64
2018-09-25T00:28:37.365Z,82.02
2018-09-25T00:31:12.148Z,81.43
2018-09-25T00:33:46.993Z,81.58
2018-09-25T00:36:21.660Z,81.98
2018-09-25T00:38:56.425Z,82.12
2018-09-25T00:41:31.243Z,81.37
2018-09-25T00:44:06.032Z,81.40
2018-09-25T00:46:40.908Z,81.61
2018-09-25T00:49:15.572Z,81.98
2018-09-25T00:51:50.236Z,82.76
2018-09-25T00:54:25.016Z,82.11
2018-09-25T00:56:59.896Z,82.17
2018-09-25T00:59:34.704Z,82.19
2018-09-25T01:02:09.517Z,82.11
2018-09-25T01:04:44.245Z,82.04
2018-09-25T01:07:19.054Z,81.29
2018-09-25T01:09:53.972Z,81.82
2018-09-25T01:12:28.715Z,82.16
2018-09-25T01:15:03.480Z,82.79
2018-09-25T01:17:38.247Z,82.44
2018-09-25T01:20:13.085Z,82.53
2018-09-25T01:22:47.709Z,82.82
2018-09-25T01:25:22.475Z,82.83
2018-09-25T01:27:57.235Z,82.59
2018-09-25T01:30:32.001Z,82.02
2018-09-25T01:33:06.824Z,82.67
2018-09-25T01:35:41.482Z,82.93
2018-09-25T01:38:16.128Z,82.79
2018-09-25T01:40:50.920Z,82.64
2018-09-25T01:43:25.613Z,82.67
2018-09-25T01:46:00.397Z,82.74
2018-09-25T01:48:35.193Z,82.37
2018-09-25T01:51:10.036Z,82.13
2018-09-25T01:53:44.795Z,82.89
2018-09-25T01:56:19.708Z,84.04
2018-09-25T01:58:54.411Z,83.32
2018-09-25T02:01:29.164Z,83.50
2018-09-25T02:04:03.916Z,83.44
2018-09-25T02:06:38.675Z,83.18
2018-09-25T02:09:13.584Z,82.73
2018-09-25T02:11:48.267Z,83.16
2018-09-25T02:14:23.072Z,82.32
2018-09-25T02:16:57.700Z,82.57
2018-09-25T02:19:32.829Z,83.02
2018-09-25T02:22:07.484Z,83.54
2018-09-25T02:24:42.312Z,82.73
2018-09-25T02:27:17.140Z,83.44
2018-09-25T02:29:51.988Z,83.40
2018-09-25T02:32:26.727Z,83.38
2018-09-25T02:35:01.567Z,83.58
2018-09-25T02:37:36.283Z,83.14
2018-09-25T02:40:11.138Z,83.48
2018-09-25T02:42:45.936Z,83.10
2018-09-25T02:45:20.693Z,82.96
2018-09-25T02:47:55.443Z,83.00
2018-09-25T02:50:30.168Z,83.36
2018-09-25T02:53:04.908Z,82.96
2018-09-25T02:55:39.682Z,83.13
2018-09-25T02:58:14.437Z,82.54
2018-09-25T03:00:49.224Z,82.97
2018-09-25T03:03:23.964Z,82.27
2018-09-25T03:05:58.636Z,82.25
2018-09-25T03:08:33.444Z,82.37
2018-09-25T03:11:08.217Z,83.69
2018-09-25T03:13:42.904Z,84.56
2018-09-25T03:16:17.692Z,84.71
2018-09-25T03:18:52.428Z,83.72
2018-09-25T03:21:27.231Z,83.36
2018-09-25T03:24:02.008Z,83.82
2018-09-25T03:26:36.689Z,83.51
2018-09-25T03:29:11.680Z,83.56
2018-09-25T03:31:46.392Z,83.78
2018-09-25T03:34:21.106Z,84.00
2018-09-25T03:36:55.912Z,83.56
2018-09-25T03:39:30.665Z,83.26
2018-09-25T03:42:05.731Z,83.33
2018-09-25T03:44:40.890Z,84.13
2018-09-25T03:47:15.736Z,83.55
2018-09-25T03:49:50.480Z,83.27
2018-09-25T03:52:25.172Z,83.42
2018-09-25T03:54:59.931Z,82.94
2018-09-25T03:57:34.684Z,83.19
2018-09-25T04:00:09.492Z,82.67
2018-09-25T04:02:44.263Z,82.76
2018-09-25T04:05:19.052Z,83.09
2018-09-25T04:07:53.794Z,82.38
2018-09-25T04:10:28.582Z,82.66
2018-09-25T04:13:03.388Z,82.56
2018-09-25T04:15:38.289Z,83.39
2018-09-25T04:18:13.084Z,83.53
2018-09-25T04:20:47.864Z,83.00
2018-09-25T04:23:22.752Z,83.53
2018-09-25T04:25:57.600Z,83.49
2018-09-25T04:28:32.418Z,83.16
2018-09-25T04:31:07.184Z,83.08
2018-09-25T04:33:41.988Z,82.93
2018-09-25T04:36:16.784Z,83.00
2018-09-25T04:38:51.392Z,82.68
2018-09-25T04:41:26.284Z,82.90
2018-09-25T04:44:01.073Z,83.36
2018-09-25T04:46:35.832Z,82.73
2018-09-25T04:49:10.756Z,82.81
2018-09-25T04:51:45.567Z,83.14
2018-09-25T04:54:20.407Z,82.45
2018-09-25T04:56:55.196Z,82.26
2018-09-25T04:59:30.048Z,82.98
2018-09-25T05:02:04.855Z,82.42
2018-09-25T05:04:39.591Z,82.73
2018-09-25T05:07:14.408Z,82.00
2018-09-25T05:09:49.180Z,82.66
2018-09-25T05:12:24.270Z,82.70
2018-09-25T05:14:59.045Z,83.28
2018-09-25T05:17:33.761Z,83.49
2018-09-25T05:20:08.628Z,83.16
2018-09-25T05:22:43.350Z,82.93
2018-09-25T05:25:18.122Z,82.81
2018-09-25T05:27:52.920Z,82.45
2018-09-25T05:30:27.708Z,83.68
2018-09-25T05:33:02.355Z,83.25
2018-09-25T05:35:37.152Z,82.30
2018-09-25T05:38:11.940Z,82.69
2018-09-25T05:40:46.683Z,82.37
2018-09-25T05:43:21.603Z,83.05
2018-09-25T05:45:56.567Z,82.76
2018-09-25T05:48:31.383Z,83.30
2018-09-25T05:51:06.121Z,83.71
2018-09-25T05:53:40.835Z,84.05
2018-09-25T05:56:15.628Z,83.87
2018-09-25T05:58:50.421Z,84.90
2018-09-25T06:01:25.312Z,84.19
2018-09-25T06:04:00.184Z,85.30
2018-09-25T06:06:35.191Z,84.40
2018-09-25T06:09:11.450Z,84.58
2018-09-25T06:11:46.273Z,83.53
2018-09-25T06:14:21.165Z,83.04
2018-09-25T06:16:56.025Z,82.19
2018-09-25T06:19:30.701Z,81.69
2018-09-25T06:22:05.513Z,82.08
2018-09-25T06:24:40.262Z,82.31
2018-09-25T06:27:15.047Z,82.54
2018-09-25T06:29:49.816Z,82.66
2018-09-25T06:32:24.531Z,83.15
2018-09-25T06:34:59.502Z,83.33
2018-09-25T06:37:34.768Z,83.32
2018-09-25T06:40:09.688Z,83.68
2018-09-25T06:42:44.471Z,83.58
2018-09-25T06:45:19.277Z,82.61
2018-09-25T06:47:54.060Z,83.37
2018-09-25T06:50:29.171Z,83.67
2018-09-25T06:53:04.014Z,83.61
2018-09-25T06:55:38.728Z,82.21
2018-09-25T06:58:13.468Z,80.88
2018-09-25T07:00:48.211Z,81.06
2018-09-25T07:03:23.024Z,80.12
2018-09-25T07:05:57.857Z,79.89
2018-09-25T07:08:32.680Z,81.81
2018-09-25T07:11:07.424Z,81.57
2018-09-25T07:13:42.065Z,80.67
2018-09-25T07:16:16.809Z,80.82
2018-09-25T07:18:51.620Z,80.26
2018-09-25T07:21:26.480Z,79.62
2018-09-25T07:24:01.234Z,80.56
2018-09-25T07:26:36.088Z,79.11
2018-09-25T07:29:10.945Z,77.95
2018-09-25T07:31:45.748Z,78.15
2018-09-25T07:34:20.599Z,78.74
2018-09-25T07:36:55.286Z,78.10
2018-09-25T07:39:30.112Z,78.61
2018-09-25T07:42:04.918Z,77.89
2018-09-25T07:44:40.076Z,78.63
2018-09-25T07:47:14.952Z,77.85
2018-09-25T07:49:49.784Z,78.84
2018-09-25T07:52:24.467Z,77.13
2018-09-25T07:54:59.236Z,77.39
2018-09-25T07:57:34.064Z,76.79
2018-09-25T08:00:08.864Z,76.06
2018-09-25T08:02:43.596Z,75.78
2018-09-25T08:05:18.387Z,76.68
2018-09-25T08:07:53.175Z,76.11
2018-09-25T08:10:28.043Z,75.82
2018-09-25T08:13:02.988Z,75.39
2018-09-25T08:15:37.858Z,74.50
2018-09-25T08:18:12.411Z,74.08
2018-09-25T08:20:47.173Z,73.70
2018-09-25T08:23:21.976Z,74.28
2018-09-25T08:25:56.721Z,74.60
2018-09-25T08:28:31.535Z,72.77
2018-09-25T08:31:06.414Z,72.09
2018-09-25T08:33:41.084Z,72.01
2018-09-25T08:36:15.916Z,71.85
2018-09-25T08:38:50.837Z,70.88
2018-09-25T08:41:25.655Z,69.10
2018-09-25T08:44:00.497Z,69.83
2018-09-25T08:46:35.390Z,70.58
2018-09-25T08:49:10.212Z,69.23
2018-09-25T08:51:45.064Z,69.85
2018-09-25T08:54:19.792Z,68.58
2018-09-25T08:56:54.524Z,69.11
2018-09-25T08:59:29.323Z,67.91
2018-09-25T09:02:04.179Z,66.02
2018-09-25T09:04:39.008Z,67.82
2018-09-25T09:07:13.731Z,67.40
2018-09-25T09:09:48.568Z,66.10
2018-09-25T09:12:23.397Z,66.47
2018-09-25T09:14:58.180Z,65.10
2018-09-25T09:17:32.948Z,65.94
2018-09-25T09:20:07.876Z,64.76
2018-09-25T09:22:42.432Z,65.67
2018-09-25T09:25:17.314Z,64.28
2018-09-25T09:27:52.092Z,64.05
2018-09-25T09:30:27.006Z,65.28
2018-09-25T09:33:01.850Z,62.93
2018-09-25T09:35:36.668Z,63.07
2018-09-25T09:38:11.400Z,63.34
2018-09-25T09:40:46.172Z,63.88
2018-09-25T09:43:20.993Z,63.50
2018-09-25T09:45:55.808Z,63.06
2018-09-25T09:48:30.612Z,62.31
2018-09-25T09:51:05.441Z,62.98
2018-09-25T09:53:40.220Z,61.36
2018-09-25T09:56:14.924Z,62.16
2018-09-25T09:58:49.614Z,63.43
2018-09-25T10:01:24.262Z,64.15
2018-09-25T10:03:59.008Z,63.90
2018-09-25T10:06:33.777Z,63.52
2018-09-25T10:09:08.723Z,63.87
2018-09-25T10:11:43.517Z,64.21
2018-09-25T10:14:18.220Z,62.31
2018-09-25T10:16:53.224Z,62.01
2018-09-25T10:19:28.024Z,60.99
2018-09-25T10:22:02.936Z,60.63
2018-09-25T10:24:37.709Z,61.86
2018-09-25T10:27:12.578Z,63.06
2018-09-25T10:29:47.388Z,62.36
2018-09-25T10:32:22.124Z,63.56
2018-09-25T10:34:57.041Z,63.52
2018-09-25T10:37:31.926Z,63.42
2018-09-25T10:40:06.932Z,62.17
2018-09-25T10:42:41.743Z,62.56
2018-09-25T10:45:16.572Z,64.02
2018-09-25T10:47:51.383Z,63.80
2018-09-25T10:50:26.228Z,63.67
2018-09-25T10:53:01.117Z,62.73
2018-09-25T10:55:35.852Z,63.42
2018-09-25T10:58:10.733Z,64.05
2018-09-25T11:00:45.692Z,62.75
2018-09-25T11:03:20.551Z,63.51
2018-09-25T11:05:55.393Z,62.51
2018-09-25T11:08:30.205Z,62.94
2018-09-25T11:11:04.860Z,62.38
2018-09-25T11:13:39.713Z,63.20
2018-09-25T11:16:14.512Z,61.88
2018-09-25T11:18:49.352Z,60.60
2018-09-25T11:21:24.123Z,57.97
2018-09-25T11:23:58.781Z,58.71
2018-09-25T11:26:33.599Z,57.37
2018-09-25T11:29:08.384Z,57.23
2018-09-25T11:31:43.156Z,57.08
2018-09-25T11:34:17.910Z,56.47
2018-09-25T11:36:52.641Z,55.63
2018-09-25T11:39:27.316Z,55.00
2018-09-25T11:42:02.072Z,54.85
2018-09-25T11:44:36.800Z,53.35
2018-09-25T11:47:11.488Z,55.45
2018-09-25T11:49:46.344Z,52.54
2018-09-25T11:52:21.136Z,51.65
2018-09-25T11:54:55.938Z,51.04
2018-09-25T11:57:30.782Z,51.47
2018-09-25T12:00:05.591Z,49.67
2018-09-25T12:02:40.344Z,48.70
2018-09-25T12:05:15.280Z,50.43
2018-09-25T12:07:50.121Z,51.00
2018-09-25T12:10:24.836Z,49.78
2018-09-25T12:12:59.640Z,49.68
2018-09-25T12:15:34.323Z,51.65
2018-09-25T12:18:09.153Z,52.23
2018-09-25T12:20:43.944Z,49.12
2018-09-25T12:23:18.858Z,47.54
2018-09-25T12:25:53.668Z,45.91
2018-09-25T12:28:28.556Z,47.32
2018-09-25T12:31:03.283Z,44.96
2018-09-25T12:33:38.148Z,45.81
2018-09-25T12:36:13.149Z,45.44
2018-09-25T12:38:47.961Z,48.10
2018-09-25T12:41:22.889Z,50.08
2018-09-25T12:43:57.758Z,51.18
2018-09-25T12:46:32.644Z,51.32
2018-09-25T12:49:07.461Z,51.04
2018-09-25T12:51:42.351Z,50.91
2018-09-25T12:54:17.279Z,50.29
2018-09-25T12:56:52.056Z,49.65
2018-09-25T12:59:26.899Z,49.79
2018-09-25T13:02:01.812Z,48.46
2018-09-25T13:04:36.665Z,47.90
2018-09-25T13:07:11.476Z,47.13
2018-09-25T13:09:46.316Z,48.67
2018-09-25T13:12:21.434Z,47.49
2018-09-25T13:14:56.201Z,46.41
2018-09-25T13:17:31.004Z,44.63
2018-09-25T13:20:05.838Z,45.16
2018-09-25T13:22:40.691Z,45.10
2018-09-25T13:25:15.323Z,43.31
2018-09-25T13:27:50.263Z,43.02
2018-09-25T13:30:24.923Z,43.99
2018-09-25T13:32:59.738Z,45.52
2018-09-25T13:35:34.527Z,46.81
2018-09-25T13:38:09.372Z,45.68
2018-09-25T13:40:44.192Z,44.33
2018-09-25T13:43:18.916Z,44.69
2018-09-25T13:45:53.782Z,48.79
2018-09-25T13:48:28.566Z,48.69
2018-09-25T13:51:03.508Z,49.28
2018-09-25T13:53:38.280Z,48.84
2018-09-25T13:56:13.203Z,49.34
2018-09-25T13:58:47.983Z,52.31
2018-09-25T14:01:22.817Z,48.25
2018-09-25T14:03:57.570Z,44.79
2018-09-25T14:06:32.379Z,45.17
2018-09-25T14:09:07.179Z,47.08
2018-09-25T14:11:42.056Z,49.06
2018-09-25T14:14:16.857Z,48.07
2018-09-25T14:16:51.656Z,47.96
2018-09-25T14:19:26.367Z,46.95
2018-09-25T14:22:01.241Z,47.58
2018-09-25T14:24:36.251Z,47.21
2018-09-25T14:27:11.065Z,47.58
2018-09-25T14:29:46.004Z,47.08
2018-09-25T14:32:20.784Z,46.83
2018-09-25T14:34:55.719Z,45.18
2018-09-25T14:37:30.593Z,46.40
2018-09-25T14:40:05.396Z,46.68
2018-09-25T14:42:40.156Z,47.09
2018-09-25T14:45:15.014Z,47.05
2018-09-25T14:47:49.915Z,46.11
2018-09-25T14:50:24.733Z,47.79
2018-09-25T14:52:59.692Z,49.23
2018-09-25T14:55:34.498Z,50.24
2018-09-25T14:58:09.330Z,49.83
2018-09-25T15:00:44.037Z,49.62
2018-09-25T15:03:18.861Z,49.89
2018-09-25T15:05:53.663Z,48.69
2018-09-25T15:08:28.466Z,50.14
2018-09-25T15:11:03.340Z,51.29
2018-09-25T15:13:38.044Z,51.85
2018-09-25T15:16:13.134Z,50.22
2018-09-25T15:18:47.932Z,51.84
2018-09-25T15:21:22.663Z,51.51
2018-09-25T15:23:57.492Z,51.68
2018-09-25T15:26:32.293Z,51.48
2018-09-25T15:29:06.944Z,51.52
2018-09-25T15:31:41.732Z,51.65
2018-09-25T15:34:16.503Z,52.52
2018-09-25T15:36:51.300Z,52.43
2018-09-25T15:39:26.139Z,51.94
2018-09-25T15:42:00.961Z,51.91
2018-09-25T15:44:35.749Z,52.55
2018-09-25T15:47:10.584Z,52.64
2018-09-25T15:49:45.428Z,53.40
2018-09-25T15:52:20.219Z,53.51
2018-09-25T15:54:55.132Z,50.49
2018-09-25T15:57:30.017Z,52.33
2018-09-25T16:00:04.844Z,52.27
2018-09-25T16:02:39.669Z,53.87
2018-09-25T16:05:14.576Z,54.13
2018-09-25T16:07:49.365Z,54.30
2018-09-25T16:10:23.984Z,55.12
2018-09-25T16:20:09.676Z,55.58
2018-09-25T16:22:44.380Z,56.36
2018-09-25T16:25:19.321Z,56.34
2018-09-25T16:27:54.160Z,56.14
2018-09-25T16:30:29.048Z,56.59
2018-09-25T16:33:03.692Z,57.43
2018-09-25T16:35:38.646Z,58.72
2018-09-25T16:38:13.444Z,58.71
2018-09-25T16:40:48.405Z,59.59
2018-09-25T16:43:23.180Z,60.15
2018-09-25T16:45:57.988Z,60.07
2018-09-25T16:48:32.808Z,61.24
2018-09-25T16:51:07.632Z,60.35
2018-09-25T16:53:42.472Z,61.71
2018-09-25T16:56:17.339Z,61.64
2018-09-25T16:58:52.191Z,62.23
2018-09-25T17:01:26.820Z,61.77
2018-09-25T17:04:01.585Z,62.45
2018-09-25T17:06:36.400Z,62.42
2018-09-25T17:09:12.730Z,61.72
2018-09-25T17:11:47.644Z,62.49
2018-09-25T17:14:22.477Z,62.72
2018-09-25T17:16:57.300Z,62.26
2018-09-25T17:19:32.112Z,63.53
2018-09-25T17:22:06.895Z,63.83
2018-09-25T17:24:41.624Z,64.36
2018-09-25T17:27:16.476Z,64.11
2018-09-25T17:29:51.176Z,63.79
2018-09-25T17:32:25.940Z,65.28
2018-09-25T17:35:00.839Z,65.16
2018-09-25T17:37:35.861Z,65.42
2018-09-25T17:40:10.784Z,65.23
2018-09-25T17:42:45.632Z,65.11
2018-09-25T17:45:20.480Z,65.00
2018-09-25T17:47:55.160Z,64.74
2018-09-25T17:50:29.804Z,65.66
2018-09-25T17:53:04.648Z,66.75
2018-09-25T17:55:39.595Z,66.27
2018-09-25T17:58:14.461Z,66.02
2018-09-25T18:00:49.206Z,66.73
2018-09-25T18:03:23.867Z,65.94
2018-09-25T18:05:58.656Z,66.20
2018-09-25T18:08:33.584Z,66.81
2018-09-25T18:11:08.469Z,66.72
2018-09-25T18:13:43.249Z,67.31
2018-09-25T18:16:17.880Z,66.00
2018-09-25T18:18:52.641Z,66.26
2018-09-25T18:21:27.309Z,65.75
2018-09-25T18:24:02.172Z,65.96
2018-09-25T18:26:36.917Z,66.01
2018-09-25T18:29:11.776Z,66.48
2018-09-25T18:31:46.650Z,66.39
2018-09-25T18:34:21.428Z,65.94
2018-09-25T18:36:56.057Z,65.99
2018-09-25T18:39:31.036Z,66.40
2018-09-25T18:42:05.937Z,66.96
2018-09-25T18:44:40.736Z,67.09
2018-09-25T18:47:15.496Z,67.25
2018-09-25T18:49:50.310Z,67.14
2018-09-25T18:52:25.196Z,67.19
2018-09-25T18:54:59.994Z,67.17
2018-09-25T18:57:34.854Z,67.27
2018-09-25T19:00:09.857Z,67.34
2018-09-25T19:02:44.666Z,67.70
2018-09-25T19:05:19.533Z,68.04
2018-09-25T19:07:54.410Z,68.30
2018-09-25T19:10:29.169Z,67.72
2018-09-25T19:13:03.947Z,69.08
2018-09-25T19:15:38.848Z,68.53
2018-09-25T19:18:13.712Z,68.20
2018-09-25T19:20:48.652Z,68.94
2018-09-25T19:23:23.475Z,68.86
2018-09-25T19:25:58.525Z,69.17
2018-09-25T19:28:33.428Z,68.64
2018-09-25T19:31:08.160Z,69.33
2018-09-25T19:33:42.932Z,69.93
2018-09-25T19:36:17.756Z,69.33
2018-09-25T19:38:52.657Z,69.62
2018-09-25T19:41:27.560Z,68.98
2018-09-25T19:44:02.384Z,69.79
2018-09-25T19:46:37.200Z,69.44
2018-09-25T19:49:11.980Z,70.00
2018-09-25T19:51:46.788Z,69.94
2018-09-25T19:54:21.944Z,70.43
2018-09-25T19:56:56.640Z,71.18
2018-09-25T19:59:31.465Z,72.07
2018-09-25T20:02:06.159Z,71.22
2018-09-25T20:04:41.032Z,71.57
2018-09-25T20:07:15.909Z,71.24
2018-09-25T20:09:50.806Z,71.22
2018-09-25T20:12:25.560Z,70.60
2018-09-25T20:15:00.400Z,71.00
2018-09-25T20:17:35.166Z,70.64
2018-09-25T20:20:10.180Z,71.36
2018-09-25T20:22:45.033Z,71.39
2018-09-25T20:25:19.912Z,71.32
2018-09-25T20:27:54.712Z,71.14
2018-09-25T20:30:29.428Z,71.96
2018-09-25T20:33:04.174Z,71.66
2018-09-25T20:35:38.904Z,72.31
2018-09-25T20:38:13.696Z,71.91
2018-09-25T20:40:48.416Z,72.31
2018-09-25T20:43:23.223Z,72.41
2018-09-25T20:45:57.980Z,72.28
2018-09-25T20:48:32.792Z,72.44
2018-09-25T20:51:07.457Z,72.72
2018-09-25T20:53:42.220Z,73.30
2018-09-25T20:56:16.993Z,72.70
2018-09-25T20:58:51.804Z,73.46
2018-09-25T21:01:26.704Z,73.04
2018-09-25T21:04:01.728Z,73.28
2018-09-25T21:06:36.508Z,73.43
2018-09-25T21:09:13.971Z,72.99
2018-09-25T21:11:48.841Z,73.50
2018-09-25T21:14:23.664Z,73.34
2018-09-25T21:16:58.292Z,73.87
2018-09-25T21:19:33.048Z,74.44
2018-09-25T21:22:07.885Z,73.95
2018-09-25T21:24:42.632Z,74.45
2018-09-25T21:27:17.446Z,73.96
2018-09-25T21:29:52.200Z,73.77
2018-09-25T21:32:27.108Z,73.85
2018-09-25T21:35:01.857Z,74.02
2018-09-25T21:37:36.783Z,73.70
2018-09-25T21:40:11.706Z,73.79
2018-09-25T21:42:46.717Z,73.74
2018-09-25T21:45:21.433Z,73.97
2018-09-25T21:47:56.265Z,73.72
2018-09-25T21:50:31.079Z,73.49
2018-09-25T21:53:05.932Z,73.32
2018-09-25T21:55:40.560Z,73.73
2018-09-25T21:58:15.360Z,73.49
2018-09-25T22:00:50.173Z,73.34
2018-09-25T22:03:24.925Z,73.42
2018-09-25T22:05:59.848Z,73.99
2018-09-25T22:08:34.728Z,74.26
2018-09-25T22:11:09.605Z,73.96
2018-09-25T22:13:44.388Z,73.64
2018-09-25T22:16:19.167Z,73.55
2018-09-25T22:18:53.837Z,73.25
2018-09-25T22:21:28.580Z,73.09
2018-09-25T22:24:03.404Z,72.67
2018-09-25T22:26:38.040Z,72.95
2018-09-25T22:29:12.908Z,73.02
2018-09-25T22:31:47.813Z,73.04
2018-09-25T22:34:22.623Z,72.35
2018-09-25T22:36:57.406Z,73.31
2018-09-25T22:39:32.423Z,73.09
2018-09-25T22:42:07.280Z,73.69
2018-09-25T22:44:42.087Z,73.00
2018-09-25T22:47:17.002Z,73.71
2018-09-25T22:49:51.772Z,73.28
2018-09-25T22:52:26.595Z,73.99
2018-09-25T22:55:01.613Z,73.40
2018-09-25T22:57:36.600Z,74.27
2018-09-25T23:00:11.532Z,73.29
2018-09-25T23:02:46.317Z,74.12
2018-09-25T23:05:21.156Z,73.42
2018-09-25T23:07:55.976Z,73.61
2018-09-25T23:10:30.864Z,73.56
2018-09-25T23:13:05.752Z,74.43
2018-09-25T23:15:40.513Z,74.18
2018-09-25T23:18:15.160Z,74.03
2018-09-25T23:20:49.969Z,74.13
2018-09-25T23:23:24.692Z,74.34
2018-09-25T23:25:59.603Z,74.16
2018-09-25T23:28:34.352Z,74.21
2018-09-25T23:31:09.182Z,73.76
2018-09-25T23:33:43.956Z,73.67
2018-09-25T23:36:18.821Z,74.54
2018-09-25T23:38:53.636Z,74.20
2018-09-25T23:41:28.296Z,74.67
2018-09-25T23:44:03.097Z,74.49
2018-09-25T23:46:39.667Z,74.83
2018-09-25T23:49:14.323Z,74.71
2018-09-25T23:52:47.111Z,74.71
2018-09-25T23:57:26.116Z,75.79
